createdAt,value
2022-11-21T00:00:59.144Z,6.01
2022-11-21T00:03:29.564Z,6.54
2022-11-21T00:06:05.967Z,6.77
2022-11-21T00:08:36.520Z,6.14
2022-11-21T00:11:07.509Z,4.70
2022-11-21T00:13:38.414Z,4.14
2022-11-21T00:16:10.188Z,5.14
2022-11-21T00:18:41.848Z,6.10
2022-11-21T00:21:13.822Z,6.56
2022-11-21T00:23:44.612Z,6.58
2022-11-21T00:26:15.885Z,5.15
2022-11-21T00:28:46.287Z,3.83
2022-11-21T00:31:23.912Z,3.25
2022-11-21T00:33:54.533Z,4.25
2022-11-21T00:36:29.132Z,4.99
2022-11-21T00:39:03.951Z,5.75
2022-11-21T00:41:39.132Z,6.35
2022-11-21T00:44:09.855Z,6.74
2022-11-21T00:46:40.655Z,6.78
2022-11-21T00:49:11.577Z,5.54
2022-11-21T00:51:46.563Z,4.54
2022-11-21T00:54:17.433Z,5.00
2022-11-21T00:56:47.925Z,5.98
2022-11-21T00:59:23.618Z,6.78
2022-11-21T01:01:58.304Z,6.03
2022-11-21T01:04:36.300Z,4.51
2022-11-21T01:07:07.271Z,3.90
2022-11-21T01:09:38.388Z,4.93
2022-11-21T01:12:13.733Z,5.85
2022-11-21T01:14:53.077Z,6.46
2022-11-21T01:17:27.849Z,6.74
2022-11-21T01:20:05.855Z,6.66
2022-11-21T01:22:36.840Z,5.79
2022-11-21T01:25:08.491Z,4.46
2022-11-21T01:27:44.243Z,3.75
2022-11-21T01:30:19.727Z,4.60
2022-11-21T01:32:54.366Z,5.70
2022-11-21T01:35:29.244Z,6.35
2022-11-21T01:38:00.096Z,6.84
2022-11-21T01:40:30.850Z,6.83
2022-11-21T01:43:04.501Z,5.62
2022-11-21T01:45:52.557Z,4.39
2022-11-21T01:48:24.209Z,3.47
2022-11-21T01:50:55.446Z,4.00
2022-11-21T01:53:26.719Z,5.12
2022-11-21T01:55:57.222Z,5.83
2022-11-21T01:58:29.441Z,6.39
2022-11-21T02:01:00.819Z,6.87
2022-11-21T02:03:34.129Z,6.63
2022-11-21T02:06:05.269Z,5.10
2022-11-21T02:08:36.317Z,4.31
2022-11-21T02:11:12.512Z,5.17
2022-11-21T02:13:43.342Z,6.20
2022-11-21T02:16:13.835Z,5.94
2022-11-21T02:18:44.747Z,4.40
2022-11-21T02:21:23.187Z,3.40
2022-11-21T02:24:00.469Z,4.25
2022-11-21T02:26:31.624Z,5.44
2022-11-21T02:29:02.454Z,6.41
2022-11-21T02:31:33.191Z,6.11
2022-11-21T02:34:04.198Z,4.51
2022-11-21T02:36:40.942Z,3.24
2022-11-21T02:39:14.601Z,2.86
2022-11-21T02:41:48.865Z,4.09
2022-11-21T02:44:23.580Z,5.25
2022-11-21T02:46:54.298Z,5.98
2022-11-21T02:49:29.020Z,6.54
2022-11-21T02:51:59.582Z,6.22
2022-11-21T02:54:30.459Z,4.88
2022-11-21T02:57:03.970Z,3.74
2022-11-21T02:59:35.320Z,3.16
2022-11-21T03:02:06.301Z,4.14
2022-11-21T03:04:39.448Z,5.33
2022-11-21T03:07:09.903Z,6.14
2022-11-21T03:09:40.617Z,6.67
2022-11-21T03:12:11.645Z,6.08
2022-11-21T03:14:42.477Z,4.81
2022-11-21T03:17:13.315Z,3.80
2022-11-21T03:19:44.052Z,3.44
2022-11-21T03:22:15.399Z,4.53
2022-11-21T03:24:46.133Z,5.60
2022-11-21T03:27:16.724Z,6.29
2022-11-21T03:29:47.391Z,6.36
2022-11-21T03:32:18.734Z,5.04
2022-11-21T03:34:49.130Z,3.78
2022-11-21T03:37:19.790Z,3.24
2022-11-21T03:39:50.421Z,4.27
2022-11-21T03:42:22.318Z,5.36
2022-11-21T03:44:52.708Z,5.94
2022-11-21T03:47:26.010Z,5.99
2022-11-21T03:49:56.356Z,4.67
2022-11-21T03:52:27.611Z,3.46
2022-11-21T03:54:57.999Z,3.44
2022-11-21T03:57:29.148Z,4.58
2022-11-21T03:59:59.614Z,5.52
2022-11-21T04:02:31.029Z,6.12
2022-11-21T04:05:01.348Z,6.19
2022-11-21T04:07:32.341Z,5.01
2022-11-21T04:10:02.701Z,3.82
2022-11-21T04:12:33.841Z,2.97
2022-11-21T04:15:09.246Z,2.61
2022-11-21T04:17:43.095Z,3.76
2022-11-21T04:20:14.263Z,4.94
2022-11-21T04:22:45.284Z,5.70
2022-11-21T04:25:15.647Z,5.95
2022-11-21T04:27:46.381Z,4.86
2022-11-21T04:30:17.132Z,3.62
2022-11-21T04:32:47.755Z,2.84
2022-11-21T04:35:18.236Z,3.57
2022-11-21T04:37:48.896Z,4.62
2022-11-21T04:40:19.594Z,5.32
2022-11-21T04:42:50.390Z,5.80
2022-11-21T04:45:20.698Z,6.17
2022-11-21T04:47:51.791Z,5.93
2022-11-21T04:50:22.219Z,4.62
2022-11-21T04:52:53.683Z,3.47
2022-11-21T04:55:25.421Z,2.91
2022-11-21T04:57:57.292Z,3.88
2022-11-21T05:00:27.765Z,5.02
2022-11-21T05:03:02.283Z,5.79
2022-11-21T05:05:32.891Z,5.95
2022-11-21T05:08:03.816Z,4.67
2022-11-21T05:10:54.601Z,3.35
2022-11-21T05:13:25.747Z,2.72
2022-11-21T05:15:58.745Z,3.71
2022-11-21T05:18:29.611Z,4.57
2022-11-21T05:21:00.405Z,5.10
2022-11-21T05:23:31.105Z,5.51
2022-11-21T05:26:02.078Z,5.89
2022-11-21T05:28:33.053Z,5.76
2022-11-21T05:31:03.440Z,4.60
2022-11-21T05:33:34.593Z,3.38
2022-11-21T05:36:05.629Z,2.49
2022-11-21T05:38:36.608Z,2.44
2022-11-21T05:41:07.354Z,3.64
2022-11-21T05:43:46.873Z,4.65
2022-11-21T05:46:17.728Z,5.06
2022-11-21T05:48:49.117Z,5.62
2022-11-21T05:51:19.541Z,5.38
2022-11-21T05:53:50.316Z,4.00
2022-11-21T05:56:20.902Z,2.76
2022-11-21T05:58:51.529Z,2.17
2022-11-21T06:01:35.924Z,3.15
2022-11-21T06:04:07.344Z,4.27
2022-11-21T06:06:37.657Z,5.03
2022-11-21T06:09:08.922Z,5.40
2022-11-21T06:11:39.185Z,5.72
2022-11-21T06:14:10.169Z,5.93
2022-11-21T06:16:40.496Z,5.89
2022-11-21T06:19:11.273Z,4.65
2022-11-21T06:21:41.699Z,3.45
2022-11-21T06:24:14.480Z,2.56
2022-11-21T06:26:47.426Z,2.23
2022-11-21T06:29:18.397Z,3.35
2022-11-21T06:31:48.745Z,4.52
2022-11-21T06:34:19.628Z,5.27
2022-11-21T06:36:50.978Z,5.78
2022-11-21T06:39:21.912Z,5.85
2022-11-21T06:41:52.235Z,4.61
2022-11-21T06:44:23.071Z,3.38
2022-11-21T06:46:53.357Z,2.79
2022-11-21T06:49:24.224Z,3.74
2022-11-21T06:51:55.055Z,4.64
2022-11-21T06:54:26.003Z,5.41
2022-11-21T06:56:56.321Z,5.73
2022-11-21T06:59:27.262Z,5.95
2022-11-21T07:01:57.790Z,6.03
2022-11-21T07:04:28.890Z,4.92
2022-11-21T07:06:59.618Z,3.59
2022-11-21T07:09:33.778Z,2.68
2022-11-21T07:12:18.740Z,2.35
2022-11-21T07:14:49.616Z,3.53
2022-11-21T07:17:20.006Z,4.51
2022-11-21T07:19:50.788Z,5.33
2022-11-21T07:22:21.749Z,5.93
2022-11-21T07:24:52.513Z,6.24
2022-11-21T07:27:23.041Z,5.17
2022-11-21T07:29:53.772Z,3.96
2022-11-21T07:32:24.066Z,3.35
2022-11-21T07:34:55.179Z,4.25
2022-11-21T07:37:25.558Z,5.07
2022-11-21T07:39:56.091Z,6.01
2022-11-21T07:42:26.828Z,6.28
2022-11-21T07:44:57.558Z,5.14
2022-11-21T07:47:28.078Z,3.94
2022-11-21T07:49:58.840Z,3.46
2022-11-21T07:52:30.877Z,4.61
2022-11-21T07:55:02.722Z,5.84
2022-11-21T07:57:34.138Z,6.56
2022-11-21T08:00:05.289Z,6.91
2022-11-21T08:02:36.216Z,5.97
2022-11-21T08:05:09.877Z,4.98
2022-11-21T08:07:40.680Z,4.51
2022-11-21T08:10:11.679Z,5.53
2022-11-21T08:12:42.392Z,6.83
2022-11-21T08:15:13.836Z,7.64
2022-11-21T08:17:48.738Z,7.04
2022-11-21T08:20:19.695Z,5.81
2022-11-21T08:22:50.484Z,5.69
2022-11-21T08:25:21.163Z,6.85
2022-11-21T08:27:51.724Z,7.68
2022-11-21T08:30:22.430Z,8.29
2022-11-21T08:32:53.473Z,8.10
2022-11-21T08:35:24.351Z,7.03
2022-11-21T08:37:58.429Z,6.18
2022-11-21T08:40:30.183Z,5.61
2022-11-21T08:43:01.223Z,5.87
2022-11-21T08:45:32.387Z,7.19
2022-11-21T08:48:03.160Z,8.19
2022-11-21T08:50:33.929Z,8.77
2022-11-21T08:53:04.809Z,7.98
2022-11-21T08:55:35.922Z,6.85
2022-11-21T08:58:06.534Z,6.03
2022-11-21T09:00:39.118Z,5.95
2022-11-21T09:03:14.234Z,7.18
2022-11-21T09:05:46.342Z,8.23
2022-11-21T09:08:17.456Z,8.77
2022-11-21T09:10:48.084Z,7.94
2022-11-21T09:13:18.621Z,6.94
2022-11-21T09:16:20.098Z,6.50
2022-11-21T09:18:52.876Z,7.76
2022-11-21T09:21:23.728Z,8.77
2022-11-21T09:23:54.491Z,9.12
2022-11-21T09:26:25.261Z,8.19
2022-11-21T09:28:57.522Z,7.25
2022-11-21T09:31:28.005Z,6.95
2022-11-21T09:33:58.918Z,7.93
2022-11-21T09:36:29.760Z,8.95
2022-11-21T09:39:00.658Z,9.25
2022-11-21T09:41:51.565Z,8.39
2022-11-21T09:44:27.506Z,7.31
2022-11-21T09:47:02.140Z,6.87
2022-11-21T09:49:36.636Z,7.80
2022-11-21T09:52:07.606Z,8.62
2022-11-21T09:54:43.366Z,9.02
2022-11-21T09:57:16.592Z,8.07
2022-11-21T09:59:47.810Z,6.95
2022-11-21T10:02:19.453Z,6.38
2022-11-21T10:04:50.592Z,7.29
2022-11-21T10:07:22.996Z,8.36
2022-11-21T10:10:04.541Z,9.02
2022-11-21T10:12:38.238Z,8.88
2022-11-21T10:15:25.260Z,7.77
2022-11-21T10:18:14.902Z,6.72
2022-11-21T10:20:51.757Z,6.89
2022-11-21T10:23:31.773Z,8.03
2022-11-21T10:26:09.018Z,8.84
2022-11-21T10:28:42.826Z,9.43
2022-11-21T10:31:14.616Z,9.55
2022-11-21T10:33:45.457Z,8.57
2022-11-21T10:36:21.122Z,7.58
2022-11-21T10:38:53.779Z,6.90
2022-11-21T10:41:25.678Z,7.57
2022-11-21T10:44:18.490Z,8.74
2022-11-21T10:46:57.130Z,9.73
2022-11-21T10:49:29.687Z,9.70
2022-11-21T10:52:03.354Z,8.63
2022-11-21T10:54:34.080Z,7.74
2022-11-21T10:57:08.377Z,7.37
2022-11-21T10:59:39.065Z,8.40
2022-11-21T11:05:20.744Z,9.09
2022-11-21T11:07:49.908Z,7.73
2022-11-21T11:10:27.468Z,7.17
2022-11-21T11:13:45.049Z,8.19
2022-11-21T11:16:08.583Z,9.25
2022-11-21T11:18:41.159Z,9.46
2022-11-21T11:21:17.058Z,8.45
2022-11-21T11:23:47.931Z,7.44
2022-11-21T11:26:26.183Z,7.52
2022-11-21T11:29:06.187Z,8.62
2022-11-21T11:31:42.583Z,9.37
2022-11-21T11:34:16.487Z,8.99
2022-11-21T11:36:55.927Z,7.95
2022-11-21T11:39:36.769Z,7.26
2022-11-21T11:42:34.277Z,8.22
2022-11-21T11:45:33.732Z,9.29
2022-11-21T11:48:09.195Z,9.35
2022-11-21T11:50:42.379Z,8.30
2022-11-21T11:53:15.686Z,7.38
2022-11-21T11:55:47.971Z,7.83
2022-11-21T11:58:23.089Z,8.95
2022-11-21T12:00:56.949Z,9.90
2022-11-21T12:03:31.945Z,10.16
2022-11-21T12:06:09.169Z,9.23
2022-11-21T12:08:53.231Z,8.24
2022-11-21T12:11:44.478Z,7.47
2022-11-21T12:14:40.582Z,7.23
2022-11-21T12:17:11.624Z,8.56
2022-11-21T12:19:42.465Z,9.56
2022-11-21T12:22:13.091Z,10.04
2022-11-21T12:24:44.033Z,9.24
2022-11-21T12:27:22.448Z,8.25
2022-11-21T12:30:00.059Z,7.49
2022-11-21T12:32:37.409Z,6.97
2022-11-21T12:35:17.188Z,6.96
2022-11-21T12:37:54.162Z,8.28
2022-11-21T12:40:30.926Z,9.52
2022-11-21T12:43:08.424Z,10.14
2022-11-21T12:45:41.424Z,10.31
2022-11-21T12:48:47.180Z,9.31
2022-11-21T12:51:51.944Z,8.17
2022-11-21T12:54:33.894Z,7.41
2022-11-21T12:57:10.346Z,7.29
2022-11-21T12:59:46.307Z,8.55
2022-11-21T13:02:23.486Z,9.71
2022-11-21T13:04:55.036Z,10.45
2022-11-21T13:07:26.781Z,10.67
2022-11-21T13:09:58.389Z,9.66
2022-11-21T13:12:32.361Z,8.60
2022-11-21T13:15:07.595Z,7.85
2022-11-21T13:17:45.462Z,8.51
2022-11-21T13:20:19.508Z,9.58
2022-11-21T13:22:54.564Z,9.98
2022-11-21T13:25:39.420Z,9.15
2022-11-21T13:28:30.152Z,8.03
2022-11-21T13:31:01.169Z,7.62
2022-11-21T13:33:48.488Z,8.65
2022-11-21T13:36:42.071Z,9.68
2022-11-21T13:39:35.399Z,10.31
2022-11-21T13:42:33.173Z,10.23
2022-11-21T13:45:21.669Z,8.92
2022-11-21T13:47:59.855Z,7.84
2022-11-21T13:50:38.213Z,7.16
2022-11-21T13:53:18.529Z,6.96
2022-11-21T13:55:56.569Z,8.16
2022-11-21T13:58:36.981Z,9.34
2022-11-21T14:01:17.315Z,10.08
2022-11-21T14:03:56.416Z,10.35
2022-11-21T14:06:44.727Z,9.34
2022-11-21T14:09:22.213Z,8.18
2022-11-21T14:11:54.726Z,7.44
2022-11-21T14:14:30.007Z,7.26
2022-11-21T14:17:06.623Z,8.44
2022-11-21T14:19:37.411Z,9.40
2022-11-21T14:22:15.368Z,10.12
2022-11-21T14:24:47.203Z,10.28
2022-11-21T14:27:26.397Z,9.22
2022-11-21T14:29:57.440Z,8.19
2022-11-21T14:32:31.856Z,7.48
2022-11-21T14:35:19.815Z,7.19
2022-11-21T14:37:51.039Z,8.45
2022-11-21T14:40:25.327Z,9.56
2022-11-21T14:42:56.047Z,10.25
2022-11-21T14:45:27.343Z,10.21
2022-11-21T14:47:57.715Z,9.01
2022-11-21T14:50:29.250Z,7.88
2022-11-21T14:53:00.700Z,7.05
2022-11-21T14:55:32.807Z,6.78
2022-11-21T14:58:04.996Z,7.93
2022-11-21T15:03:26.385Z,9.93
2022-11-21T15:06:04.626Z,10.12
2022-11-21T15:11:31.563Z,7.77
2022-11-21T15:14:19.776Z,6.90
2022-11-21T15:16:51.556Z,6.65
2022-11-21T15:19:23.797Z,7.85
2022-11-21T15:21:55.329Z,9.02
2022-11-21T15:24:33.476Z,9.81
2022-11-21T15:27:24.051Z,10.11
2022-11-21T15:30:03.382Z,8.88
2022-11-21T15:32:34.193Z,7.93
2022-11-21T15:35:18.093Z,8.55
2022-11-21T15:37:51.125Z,9.55
2022-11-21T15:40:22.120Z,10.15
2022-11-21T15:42:52.812Z,10.26
2022-11-21T15:45:26.203Z,9.23
2022-11-21T15:47:57.127Z,8.23
2022-11-21T15:50:27.590Z,7.52
2022-11-21T15:52:58.302Z,7.26
2022-11-21T15:55:30.443Z,8.39
2022-11-21T15:58:01.489Z,9.55
2022-11-21T16:00:32.028Z,10.09
2022-11-21T16:03:02.672Z,10.20
2022-11-21T16:05:33.539Z,9.20
2022-11-21T16:08:04.774Z,8.08
2022-11-21T16:10:36.351Z,7.49
2022-11-21T16:13:07.480Z,8.43
2022-11-21T16:15:38.001Z,9.48
2022-11-21T16:18:09.414Z,10.16
2022-11-21T16:20:39.943Z,10.28
2022-11-21T16:23:11.587Z,9.21
2022-11-21T16:25:52.681Z,8.16
2022-11-21T16:28:23.506Z,7.41
2022-11-21T16:30:54.413Z,7.85
2022-11-21T16:33:27.295Z,9.07
2022-11-21T16:35:58.109Z,9.99
2022-11-21T16:38:29.419Z,10.57
2022-11-21T16:41:00.666Z,10.15
2022-11-21T16:43:31.493Z,8.99
2022-11-21T16:46:07.677Z,8.03
2022-11-21T16:48:38.487Z,7.27
2022-11-21T16:51:13.639Z,7.08
2022-11-21T16:53:44.665Z,8.25
2022-11-21T16:56:15.507Z,9.37
2022-11-21T16:58:47.192Z,10.13
2022-11-21T17:01:18.577Z,10.64
2022-11-21T17:03:50.173Z,10.17
2022-11-21T17:06:22.802Z,9.03
2022-11-21T17:08:52.468Z,8.08
2022-11-21T17:11:24.278Z,7.37
2022-11-21T17:13:54.949Z,7.13
2022-11-21T17:16:25.800Z,8.22
2022-11-21T17:18:56.911Z,9.34
2022-11-21T17:21:28.259Z,10.04
2022-11-21T17:23:59.053Z,10.51
2022-11-21T17:26:30.951Z,10.66
2022-11-21T17:29:03.650Z,9.66
2022-11-21T17:31:34.671Z,8.59
2022-11-21T17:34:05.253Z,7.79
2022-11-21T17:36:35.832Z,7.50
2022-11-21T17:39:06.566Z,8.62
2022-11-21T17:41:38.313Z,9.77
2022-11-21T17:44:09.154Z,10.53
2022-11-21T17:46:40.105Z,10.70
2022-11-21T17:49:12.374Z,9.66
2022-11-21T17:51:43.346Z,8.59
2022-11-21T17:54:13.869Z,7.74
2022-11-21T17:56:48.131Z,7.35
2022-11-21T17:59:22.164Z,8.40
2022-11-21T18:01:53.279Z,9.51
2022-11-21T18:04:24.646Z,10.25
2022-11-21T18:06:55.742Z,10.67
2022-11-21T18:09:26.722Z,10.84
2022-11-21T18:11:58.125Z,9.88
2022-11-21T18:14:29.136Z,8.84
2022-11-21T18:17:00.211Z,8.08
2022-11-21T18:19:30.888Z,7.80
2022-11-21T18:22:01.621Z,8.91
2022-11-21T18:24:32.793Z,10.07
2022-11-21T18:27:03.799Z,10.78
2022-11-21T18:29:36.552Z,10.92
2022-11-21T18:32:08.249Z,9.87
2022-11-21T18:34:39.069Z,8.85
2022-11-21T18:37:10.875Z,8.13
2022-11-21T18:39:41.271Z,7.84
2022-11-21T18:42:12.000Z,8.94
2022-11-21T18:44:42.721Z,10.05
2022-11-21T18:47:20.530Z,10.79
2022-11-21T18:49:51.460Z,10.90
2022-11-21T18:52:22.403Z,9.85
2022-11-21T18:54:53.125Z,8.83
2022-11-21T18:57:24.289Z,8.07
2022-11-21T18:59:54.874Z,7.74
2022-11-21T19:02:25.564Z,8.82
2022-11-21T19:04:56.031Z,9.94
2022-11-21T19:07:26.684Z,10.57
2022-11-21T19:10:20.347Z,10.73
2022-11-21T19:12:47.763Z,9.45
2022-11-21T19:15:18.551Z,8.37
2022-11-21T19:17:49.129Z,7.86
2022-11-21T19:20:19.800Z,8.82
2022-11-21T19:22:50.506Z,9.78
2022-11-21T19:25:21.294Z,10.46
2022-11-21T19:27:51.898Z,10.66
2022-11-21T19:30:22.384Z,9.62
2022-11-21T19:32:53.087Z,8.52
2022-11-21T19:35:24.801Z,7.93
2022-11-21T19:37:55.764Z,8.75
2022-11-21T19:40:46.678Z,9.79
2022-11-21T19:43:17.312Z,10.37
2022-11-21T19:45:48.544Z,10.58
2022-11-21T19:48:19.052Z,10.57
2022-11-21T19:50:58.567Z,9.57
2022-11-21T19:53:29.763Z,8.48
2022-11-21T19:56:00.252Z,7.69
2022-11-21T19:58:32.304Z,7.34
2022-11-21T20:01:07.876Z,8.44
2022-11-21T20:03:38.841Z,9.65
2022-11-21T20:06:10.553Z,10.41
2022-11-21T20:08:40.936Z,10.88
2022-11-21T20:11:12.879Z,10.83
2022-11-21T20:13:44.607Z,9.73
2022-11-21T20:16:22.107Z,8.51
2022-11-21T20:18:57.374Z,7.60
2022-11-21T20:21:28.206Z,7.81
2022-11-21T20:23:59.139Z,9.07
2022-11-21T20:26:30.081Z,10.04
2022-11-21T20:29:04.816Z,10.57
2022-11-21T20:31:37.088Z,10.95
2022-11-21T20:34:08.655Z,10.70
2022-11-21T20:36:40.250Z,9.37
2022-11-21T20:39:13.889Z,8.29
2022-11-21T20:41:45.495Z,8.88
2022-11-21T20:47:08.839Z,10.48
2022-11-21T20:49:39.871Z,9.63
2022-11-21T20:55:01.919Z,7.63
2022-11-21T20:57:32.573Z,8.72
2022-11-21T21:00:03.447Z,9.59
2022-11-21T21:02:34.416Z,10.18
2022-11-21T21:05:06.207Z,10.59
2022-11-21T21:07:37.130Z,10.90
2022-11-21T21:10:09.898Z,10.99
2022-11-21T21:12:43.200Z,9.96
2022-11-21T21:15:18.305Z,8.75
2022-11-21T21:17:48.950Z,8.18
2022-11-21T21:20:19.757Z,9.00
2022-11-21T21:22:50.313Z,9.98
2022-11-21T21:25:21.046Z,10.59
2022-11-21T21:27:52.081Z,10.90
2022-11-21T21:30:22.924Z,11.19
2022-11-21T21:32:53.460Z,10.68
2022-11-21T21:35:24.175Z,9.31
2022-11-21T21:37:55.265Z,8.52
2022-11-21T21:40:26.069Z,9.48
2022-11-21T21:42:56.605Z,10.40
2022-11-21T21:45:27.471Z,10.68
2022-11-21T21:47:58.158Z,10.69
2022-11-21T21:50:29.197Z,9.54
2022-11-21T21:53:01.254Z,8.26
2022-11-21T21:55:32.514Z,8.05
2022-11-21T21:58:03.092Z,9.10
2022-11-21T22:00:34.238Z,9.97
2022-11-21T22:03:05.115Z,10.68
2022-11-21T22:05:35.801Z,10.15
2022-11-21T22:08:07.107Z,8.82
2022-11-21T22:10:37.898Z,8.90
2022-11-21T22:13:08.619Z,9.71
2022-11-21T22:15:39.544Z,10.21
2022-11-21T22:18:10.331Z,10.57
2022-11-21T22:20:40.820Z,10.86
2022-11-21T22:23:11.192Z,10.83
2022-11-21T22:25:41.971Z,9.71
2022-11-21T22:28:12.955Z,8.59
2022-11-21T22:30:43.792Z,9.03
2022-11-21T22:33:14.335Z,9.86
2022-11-21T22:35:45.065Z,10.31
2022-11-21T22:38:16.567Z,10.65
2022-11-21T22:40:47.551Z,10.67
2022-11-21T22:43:18.274Z,9.48
2022-11-21T22:45:48.948Z,8.15
2022-11-21T22:48:19.348Z,8.11
2022-11-21T22:50:50.169Z,9.04
2022-11-21T22:53:20.911Z,9.76
2022-11-21T22:55:59.046Z,10.20
2022-11-21T22:58:31.689Z,10.51
2022-11-21T23:01:02.465Z,9.61
2022-11-21T23:03:33.977Z,8.17
2022-11-21T23:06:05.386Z,7.54
2022-11-21T23:08:37.208Z,8.44
2022-11-21T23:11:08.689Z,9.34
2022-11-21T23:13:40.803Z,9.90
2022-11-21T23:16:12.240Z,10.27
2022-11-21T23:18:43.546Z,10.14
2022-11-21T23:21:15.041Z,8.92
2022-11-21T23:23:45.480Z,7.77
2022-11-21T23:26:16.397Z,7.34
2022-11-21T23:28:46.940Z,8.37
2022-11-21T23:31:17.479Z,9.35
2022-11-21T23:33:48.199Z,9.93
2022-11-21T23:36:19.252Z,10.31
2022-11-21T23:38:49.663Z,9.90
2022-11-21T23:41:20.342Z,8.61
2022-11-21T23:43:50.820Z,7.48
2022-11-21T23:46:22.135Z,6.88
2022-11-21T23:48:52.696Z,7.77
2022-11-21T23:51:23.327Z,8.74
2022-11-21T23:53:54.242Z,9.37
2022-11-21T23:56:24.998Z,9.80
2022-11-21T23:58:55.729Z,9.69
